sensor_id;sensor_type;location;lat;lon;timestamp;pressure;altitude;pressure_sealevel;temperature;humidity
5462;BME280;912;48.130;11.348;2022-07-01T00:00:10;95230.84;;;19.09;100.00
5462;BME280;912;48.130;11.348;2022-07-01T00:02:51;95237.80;;;19.03;100.00
5462;BME280;912;48.130;11.348;2022-07-01T00:05:33;95241.17;;;19.06;100.00
5462;BME280;912;48.130;11.348;2022-07-01T00:08:17;95231.86;;;19.04;100.00
5462;BME280;912;48.130;11.348;2022-07-01T00:10:59;95222.78;;;19.07;100.00
5462;BME280;912;48.130;11.348;2022-07-01T00:13:41;95236.06;;;19.13;100.00
5462;BME280;912;48.130;11.348;2022-07-01T00:16:22;95242.32;;;19.06;100.00
5462;BME280;912;48.130;11.348;2022-07-01T00:19:04;95256.11;;;18.94;100.00
5462;BME280;912;48.130;11.348;2022-07-01T00:21:46;95272.41;;;18.91;100.00
5462;BME280;912;48.130;11.348;2022-07-01T00:24:28;95284.92;;;18.94;100.00
5462;BME280;912;48.130;11.348;2022-07-01T00:27:09;95288.30;;;18.84;100.00
5462;BME280;912;48.130;11.348;2022-07-01T00:29:51;95289.81;;;18.73;100.00
5462;BME280;912;48.130;11.348;2022-07-01T00:32:33;95287.39;;;18.82;100.00
5462;BME280;912;48.130;11.348;2022-07-01T00:35:50;95282.52;;;18.84;100.00
5462;BME280;912;48.130;11.348;2022-07-01T00:38:32;95285.25;;;18.81;100.00
5462;BME280;912;48.130;11.348;2022-07-01T00:41:13;95289.20;;;18.83;100.00
5462;BME280;912;48.130;11.348;2022-07-01T00:43:58;95280.88;;;18.82;100.00
5462;BME280;912;48.130;11.348;2022-07-01T00:46:40;95273.74;;;18.85;100.00
5462;BME280;912;48.130;11.348;2022-07-01T00:49:22;95282.08;;;18.72;100.00
5462;BME280;912;48.130;11.348;2022-07-01T00:52:04;95286.16;;;18.68;100.00
5462;BME280;912;48.130;11.348;2022-07-01T00:57:19;95301.95;;;18.50;100.00
5462;BME280;912;48.130;11.348;2022-07-01T01:00:03;95298.17;;;18.48;100.00
5462;BME280;912;48.130;11.348;2022-07-01T01:02:43;95305.37;;;18.47;100.00
5462;BME280;912;48.130;11.348;2022-07-01T01:05:27;95302.78;;;18.50;100.00
5462;BME280;912;48.130;11.348;2022-07-01T01:08:09;95310.47;;;18.29;100.00
5462;BME280;912;48.130;11.348;2022-07-01T01:10:52;95312.70;;;18.26;100.00
5462;BME280;912;48.130;11.348;2022-07-01T01:13:33;95316.41;;;18.24;100.00
5462;BME280;912;48.130;11.348;2022-07-01T01:16:17;95314.40;;;18.14;100.00
5462;BME280;912;48.130;11.348;2022-07-01T01:18:58;95309.58;;;18.17;100.00
5462;BME280;912;48.130;11.348;2022-07-01T01:21:40;95306.82;;;18.06;100.00
5462;BME280;912;48.130;11.348;2022-07-01T01:24:22;95312.91;;;18.05;100.00
5462;BME280;912;48.130;11.348;2022-07-01T01:27:05;95305.55;;;17.98;100.00
5462;BME280;912;48.130;11.348;2022-07-01T01:29:46;95302.99;;;17.87;100.00
5462;BME280;912;48.130;11.348;2022-07-01T01:32:31;95301.36;;;17.96;100.00
5462;BME280;912;48.130;11.348;2022-07-01T01:35:51;95288.59;;;17.82;100.00
5462;BME280;912;48.130;11.348;2022-07-01T01:38:35;95289.91;;;17.73;100.00
5462;BME280;912;48.130;11.348;2022-07-01T01:41:17;95284.53;;;17.65;100.00
5462;BME280;912;48.130;11.348;2022-07-01T01:44:02;95274.40;;;17.58;100.00
5462;BME280;912;48.130;11.348;2022-07-01T01:46:44;95267.64;;;17.51;100.00
5462;BME280;912;48.130;11.348;2022-07-01T01:49:25;95268.86;;;17.37;100.00
5462;BME280;912;48.130;11.348;2022-07-01T01:52:07;95278.31;;;17.35;100.00
5462;BME280;912;48.130;11.348;2022-07-01T01:57:23;95269.04;;;17.45;100.00
5462;BME280;912;48.130;11.348;2022-07-01T02:00:06;95270.97;;;17.43;100.00
5462;BME280;912;48.130;11.348;2022-07-01T02:02:47;95279.33;;;17.48;100.00
5462;BME280;912;48.130;11.348;2022-07-01T02:05:32;95284.75;;;17.51;100.00
5462;BME280;912;48.130;11.348;2022-07-01T02:08:14;95292.60;;;17.50;100.00
5462;BME280;912;48.130;11.348;2022-07-01T02:10:55;95290.83;;;17.48;100.00
5462;BME280;912;48.130;11.348;2022-07-01T02:13:37;95291.28;;;17.50;100.00
5462;BME280;912;48.130;11.348;2022-07-01T02:16:22;95294.98;;;17.50;100.00
5462;BME280;912;48.130;11.348;2022-07-01T02:19:04;95297.13;;;17.49;100.00
5462;BME280;912;48.130;11.348;2022-07-01T02:21:45;95300.92;;;17.55;100.00
5462;BME280;912;48.130;11.348;2022-07-01T02:24:27;95303.20;;;17.49;100.00
5462;BME280;912;48.130;11.348;2022-07-01T02:27:09;95310.32;;;17.49;100.00
5462;BME280;912;48.130;11.348;2022-07-01T02:29:50;95315.63;;;17.43;100.00
5462;BME280;912;48.130;11.348;2022-07-01T02:32:32;95313.34;;;17.39;100.00
5462;BME280;912;48.130;11.348;2022-07-01T02:35:50;95312.78;;;17.42;100.00
5462;BME280;912;48.130;11.348;2022-07-01T02:38:32;95312.37;;;17.41;100.00
5462;BME280;912;48.130;11.348;2022-07-01T02:43:51;95324.97;;;17.52;100.00
5462;BME280;912;48.130;11.348;2022-07-01T02:46:33;95323.75;;;17.58;100.00
5462;BME280;912;48.130;11.348;2022-07-01T02:49:15;95328.19;;;17.56;100.00
5462;BME280;912;48.130;11.348;2022-07-01T02:51:56;95332.70;;;17.51;100.00
5462;BME280;912;48.130;11.348;2022-07-01T02:54:38;95332.17;;;17.54;100.00
5462;BME280;912;48.130;11.348;2022-07-01T02:57:23;95328.50;;;17.50;100.00
5462;BME280;912;48.130;11.348;2022-07-01T03:00:06;95324.01;;;17.48;100.00
5462;BME280;912;48.130;11.348;2022-07-01T03:02:47;95325.57;;;17.43;100.00
5462;BME280;912;48.130;11.348;2022-07-01T03:05:29;95324.44;;;17.54;100.00
5462;BME280;912;48.130;11.348;2022-07-01T03:08:11;95325.70;;;17.48;100.00
5462;BME280;912;48.130;11.348;2022-07-01T03:10:52;95328.91;;;17.47;100.00
5462;BME280;912;48.130;11.348;2022-07-01T03:13:34;95337.42;;;17.47;100.00
5462;BME280;912;48.130;11.348;2022-07-01T03:16:16;95339.48;;;17.46;100.00
5462;BME280;912;48.130;11.348;2022-07-01T03:18:58;95342.11;;;17.50;100.00
5462;BME280;912;48.130;11.348;2022-07-01T03:21:39;95349.80;;;17.49;100.00
5462;BME280;912;48.130;11.348;2022-07-01T03:24:24;95350.17;;;17.51;100.00
5462;BME280;912;48.130;11.348;2022-07-01T03:27:06;95349.52;;;17.50;100.00
5462;BME280;912;48.130;11.348;2022-07-01T03:29:47;95343.83;;;17.61;100.00
5462;BME280;912;48.130;11.348;2022-07-01T03:32:29;95344.19;;;17.68;100.00
5462;BME280;912;48.130;11.348;2022-07-01T03:35:51;95340.16;;;17.70;100.00
5462;BME280;912;48.130;11.348;2022-07-01T03:38:32;95336.67;;;17.70;100.00
5462;BME280;912;48.130;11.348;2022-07-01T03:41:14;95331.17;;;17.78;100.00
5462;BME280;912;48.130;11.348;2022-07-01T03:43:56;95336.36;;;17.87;100.00
5462;BME280;912;48.130;11.348;2022-07-01T03:46:41;95341.34;;;17.82;100.00
5462;BME280;912;48.130;11.348;2022-07-01T03:49:23;95344.17;;;17.77;100.00
5462;BME280;912;48.130;11.348;2022-07-01T03:52:07;95351.80;;;17.85;100.00
5462;BME280;912;48.130;11.348;2022-07-01T03:54:49;95353.03;;;17.89;100.00
5462;BME280;912;48.130;11.348;2022-07-01T03:57:31;95349.94;;;17.88;100.00
5462;BME280;912;48.130;11.348;2022-07-01T04:00:13;95347.40;;;17.95;100.00
5462;BME280;912;48.130;11.348;2022-07-01T04:02:54;95351.57;;;18.03;100.00
5462;BME280;912;48.130;11.348;2022-07-01T04:05:36;95348.84;;;18.02;100.00
5462;BME280;912;48.130;11.348;2022-07-01T04:08:18;95357.00;;;18.02;100.00
5462;BME280;912;48.130;11.348;2022-07-01T04:11:00;95354.83;;;17.86;100.00
5462;BME280;912;48.130;11.348;2022-07-01T04:13:41;95345.17;;;17.81;100.00
5462;BME280;912;48.130;11.348;2022-07-01T04:16:23;95339.24;;;17.80;100.00
5462;BME280;912;48.130;11.348;2022-07-01T04:19:05;95340.19;;;17.90;100.00
5462;BME280;912;48.130;11.348;2022-07-01T04:21:46;95340.64;;;17.89;100.00
5462;BME280;912;48.130;11.348;2022-07-01T04:24:37;95334.56;;;18.01;100.00
5462;BME280;912;48.130;11.348;2022-07-01T04:27:18;95313.60;;;18.26;100.00
5462;BME280;912;48.130;11.348;2022-07-01T04:30:00;95301.53;;;18.41;100.00
5462;BME280;912;48.130;11.348;2022-07-01T04:32:42;95311.42;;;18.25;100.00
5462;BME280;912;48.130;11.348;2022-07-01T04:35:53;95319.83;;;18.19;100.00
5462;BME280;912;48.130;11.348;2022-07-01T04:38:35;95318.59;;;18.16;100.00
5462;BME280;912;48.130;11.348;2022-07-01T04:41:17;95318.58;;;18.28;100.00
5462;BME280;912;48.130;11.348;2022-07-01T04:44:04;95318.46;;;18.25;100.00
5462;BME280;912;48.130;11.348;2022-07-01T04:46:46;95312.41;;;18.39;100.00
5462;BME280;912;48.130;11.348;2022-07-01T04:49:27;95311.08;;;18.38;100.00
5462;BME280;912;48.130;11.348;2022-07-01T04:52:09;95308.39;;;18.61;100.00
5462;BME280;912;48.130;11.348;2022-07-01T04:54:54;95307.11;;;18.90;100.00
5462;BME280;912;48.130;11.348;2022-07-01T04:57:38;95300.91;;;19.04;100.00
5462;BME280;912;48.130;11.348;2022-07-01T05:00:26;95306.20;;;19.09;100.00
5462;BME280;912;48.130;11.348;2022-07-01T05:03:13;95315.01;;;18.94;100.00
5462;BME280;912;48.130;11.348;2022-07-01T05:05:54;95324.16;;;18.96;100.00
5462;BME280;912;48.130;11.348;2022-07-01T05:08:36;95317.95;;;18.90;100.00
5462;BME280;912;48.130;11.348;2022-07-01T05:11:18;95305.57;;;19.03;100.00
5462;BME280;912;48.130;11.348;2022-07-01T05:14:05;95304.32;;;18.72;100.00
5462;BME280;912;48.130;11.348;2022-07-01T05:16:46;95321.23;;;18.81;100.00
5462;BME280;912;48.130;11.348;2022-07-01T05:19:34;95336.70;;;18.89;100.00
5462;BME280;912;48.130;11.348;2022-07-01T05:25:02;95347.51;;;18.83;100.00
5462;BME280;912;48.130;11.348;2022-07-01T05:30:30;95339.91;;;18.61;100.00
5462;BME280;912;48.130;11.348;2022-07-01T05:35:54;95348.01;;;18.63;100.00
5462;BME280;912;48.130;11.348;2022-07-01T05:38:35;95369.88;;;18.69;100.00
5462;BME280;912;48.130;11.348;2022-07-01T05:43:00;95387.08;;;18.81;100.00
5462;BME280;912;48.130;11.348;2022-07-01T05:45:43;95389.78;;;18.89;100.00
5462;BME280;912;48.130;11.348;2022-07-01T05:48:25;95396.22;;;18.86;100.00
5462;BME280;912;48.130;11.348;2022-07-01T05:51:07;95404.65;;;18.73;100.00
5462;BME280;912;48.130;11.348;2022-07-01T05:53:55;95405.88;;;18.76;100.00
5462;BME280;912;48.130;11.348;2022-07-01T05:56:42;95401.69;;;18.68;100.00
5462;BME280;912;48.130;11.348;2022-07-01T05:59:30;95392.80;;;18.85;100.00
5462;BME280;912;48.130;11.348;2022-07-01T06:02:12;95381.48;;;19.10;100.00
5462;BME280;912;48.130;11.348;2022-07-01T06:04:54;95391.94;;;19.30;100.00
5462;BME280;912;48.130;11.348;2022-07-01T06:07:36;95389.67;;;19.26;100.00
5462;BME280;912;48.130;11.348;2022-07-01T06:10:18;95396.87;;;19.56;100.00
5462;BME280;912;48.130;11.348;2022-07-01T06:12:59;95413.01;;;19.40;100.00
5462;BME280;912;48.130;11.348;2022-07-01T06:15:41;95422.02;;;19.24;100.00
5462;BME280;912;48.130;11.348;2022-07-01T06:18:23;95428.86;;;19.06;100.00
5462;BME280;912;48.130;11.348;2022-07-01T06:21:04;95427.91;;;19.11;100.00
5462;BME280;912;48.130;11.348;2022-07-01T06:23:46;95435.04;;;19.27;100.00
5462;BME280;912;48.130;11.348;2022-07-01T06:26:28;95436.87;;;19.72;100.00
5462;BME280;912;48.130;11.348;2022-07-01T06:31:46;95443.52;;;19.71;100.00
5462;BME280;912;48.130;11.348;2022-07-01T06:35:53;95453.46;;;19.71;100.00
5462;BME280;912;48.130;11.348;2022-07-01T06:38:35;95454.90;;;19.73;100.00
5462;BME280;912;48.130;11.348;2022-07-01T06:41:16;95450.76;;;19.94;100.00
5462;BME280;912;48.130;11.348;2022-07-01T06:44:04;95444.81;;;20.01;100.00
5462;BME280;912;48.130;11.348;2022-07-01T06:46:52;95451.98;;;20.30;100.00
5462;BME280;912;48.130;11.348;2022-07-01T06:49:40;95451.30;;;20.22;100.00
5462;BME280;912;48.130;11.348;2022-07-01T06:52:28;95443.91;;;20.54;100.00
5462;BME280;912;48.130;11.348;2022-07-01T06:55:15;95445.91;;;20.30;100.00
5462;BME280;912;48.130;11.348;2022-07-01T06:57:57;95451.50;;;19.94;100.00
5462;BME280;912;48.130;11.348;2022-07-01T07:00:41;95460.27;;;18.70;100.00
5462;BME280;912;48.130;11.348;2022-07-01T07:03:22;95463.80;;;18.25;100.00
5462;BME280;912;48.130;11.348;2022-07-01T07:06:10;95467.75;;;18.30;100.00
5462;BME280;912;48.130;11.348;2022-07-01T07:08:52;95463.09;;;18.22;100.00
5462;BME280;912;48.130;11.348;2022-07-01T07:11:33;95467.45;;;17.97;100.00
5462;BME280;912;48.130;11.348;2022-07-01T07:14:17;95479.83;;;17.48;100.00
5462;BME280;912;48.130;11.348;2022-07-01T07:16:59;95480.69;;;17.51;100.00
5462;BME280;912;48.130;11.348;2022-07-01T07:22:17;95494.81;;;17.09;100.00
5462;BME280;912;48.130;11.348;2022-07-01T07:25:02;95493.64;;;16.88;100.00
5462;BME280;912;48.130;11.348;2022-07-01T07:27:43;95482.55;;;16.78;100.00
5462;BME280;912;48.130;11.348;2022-07-01T07:30:27;95477.40;;;16.98;100.00
5462;BME280;912;48.130;11.348;2022-07-01T07:35:50;95470.56;;;16.60;100.00
5462;BME280;912;48.130;11.348;2022-07-01T07:38:38;95468.11;;;16.20;100.00
5462;BME280;912;48.130;11.348;2022-07-01T07:41:26;95483.24;;;16.03;100.00
5462;BME280;912;48.130;11.348;2022-07-01T07:44:07;95495.10;;;15.88;100.00
5462;BME280;912;48.130;11.348;2022-07-01T07:46:49;95504.51;;;15.78;100.00
5462;BME280;912;48.130;11.348;2022-07-01T07:49:31;95517.28;;;15.40;100.00
5462;BME280;912;48.130;11.348;2022-07-01T07:52:13;95524.17;;;14.87;100.00
5462;BME280;912;48.130;11.348;2022-07-01T07:54:54;95534.87;;;14.58;100.00
5462;BME280;912;48.130;11.348;2022-07-01T07:57:36;95547.58;;;14.49;100.00
5462;BME280;912;48.130;11.348;2022-07-01T08:00:18;95552.59;;;14.36;100.00
5462;BME280;912;48.130;11.348;2022-07-01T08:03:00;95562.83;;;14.08;100.00
5462;BME280;912;48.130;11.348;2022-07-01T08:08:19;95604.47;;;14.02;100.00
5462;BME280;912;48.130;11.348;2022-07-01T08:11:01;95600.08;;;13.99;100.00
5462;BME280;912;48.130;11.348;2022-07-01T08:13:42;95605.75;;;13.89;100.00
5462;BME280;912;48.130;11.348;2022-07-01T08:16:24;95614.27;;;13.72;100.00
5462;BME280;912;48.130;11.348;2022-07-01T08:19:06;95617.95;;;13.84;100.00
5462;BME280;912;48.130;11.348;2022-07-01T08:21:48;95635.95;;;13.92;100.00
5462;BME280;912;48.130;11.348;2022-07-01T08:24:32;95635.81;;;13.88;100.00
5462;BME280;912;48.130;11.348;2022-07-01T08:27:14;95639.11;;;13.85;100.00
5462;BME280;912;48.130;11.348;2022-07-01T08:29:59;95644.55;;;13.84;100.00
5462;BME280;912;48.130;11.348;2022-07-01T08:32:41;95644.36;;;13.93;100.00
5462;BME280;912;48.130;11.348;2022-07-01T08:35:51;95651.75;;;13.91;100.00
5462;BME280;912;48.130;11.348;2022-07-01T08:38:33;95649.43;;;13.91;100.00
5462;BME280;912;48.130;11.348;2022-07-01T08:41:15;95654.76;;;13.98;100.00
5462;BME280;912;48.130;11.348;2022-07-01T08:44:02;95653.48;;;13.97;100.00
5462;BME280;912;48.130;11.348;2022-07-01T08:46:46;95649.27;;;13.86;100.00
5462;BME280;912;48.130;11.348;2022-07-01T08:49:28;95643.14;;;13.94;100.00
5462;BME280;912;48.130;11.348;2022-07-01T08:52:10;95639.75;;;14.04;100.00
5462;BME280;912;48.130;11.348;2022-07-01T08:54:51;95641.66;;;14.10;100.00
5462;BME280;912;48.130;11.348;2022-07-01T08:57:33;95647.38;;;13.91;100.00
5462;BME280;912;48.130;11.348;2022-07-01T09:00:15;95645.88;;;13.96;100.00
5462;BME280;912;48.130;11.348;2022-07-01T09:03:01;95638.39;;;13.87;100.00
5462;BME280;912;48.130;11.348;2022-07-01T09:05:49;95636.22;;;14.16;100.00
5462;BME280;912;48.130;11.348;2022-07-01T09:08:32;95643.94;;;14.12;100.00
5462;BME280;912;48.130;11.348;2022-07-01T09:11:21;95645.07;;;14.08;100.00
5462;BME280;912;48.130;11.348;2022-07-01T09:14:11;95647.19;;;14.11;100.00
5462;BME280;912;48.130;11.348;2022-07-01T09:16:55;95651.20;;;14.16;100.00
5462;BME280;912;48.130;11.348;2022-07-01T09:19:36;95644.77;;;14.11;100.00
5462;BME280;912;48.130;11.348;2022-07-01T09:22:17;95639.73;;;14.25;100.00
5462;BME280;912;48.130;11.348;2022-07-01T09:24:59;95642.20;;;14.20;100.00
5462;BME280;912;48.130;11.348;2022-07-01T09:27:41;95641.37;;;14.20;100.00
5462;BME280;912;48.130;11.348;2022-07-01T09:30:26;95639.83;;;14.50;100.00
5462;BME280;912;48.130;11.348;2022-07-01T09:35:53;95639.20;;;14.58;100.00
5462;BME280;912;48.130;11.348;2022-07-01T09:38:34;95646.61;;;14.53;100.00
5462;BME280;912;48.130;11.348;2022-07-01T09:41:16;95647.10;;;14.60;100.00
5462;BME280;912;48.130;11.348;2022-07-01T09:44:03;95649.66;;;14.57;100.00
5462;BME280;912;48.130;11.348;2022-07-01T09:46:50;95648.90;;;14.66;100.00
5462;BME280;912;48.130;11.348;2022-07-01T09:49:21;95652.44;;;14.70;100.00
5462;BME280;912;48.130;11.348;2022-07-01T09:52:04;95657.19;;;14.57;100.00
5462;BME280;912;48.130;11.348;2022-07-01T09:54:46;95662.53;;;14.71;100.00
5462;BME280;912;48.130;11.348;2022-07-01T09:57:29;95659.84;;;14.79;100.00
5462;BME280;912;48.130;11.348;2022-07-01T10:00:17;95670.15;;;14.78;100.00
5462;BME280;912;48.130;11.348;2022-07-01T10:02:59;95671.92;;;14.78;100.00
5462;BME280;912;48.130;11.348;2022-07-01T10:05:50;95675.08;;;14.85;100.00
5462;BME280;912;48.130;11.348;2022-07-01T10:08:50;95680.03;;;14.88;100.00
5462;BME280;912;48.130;11.348;2022-07-01T10:11:52;95685.02;;;14.82;100.00
5462;BME280;912;48.130;11.348;2022-07-01T10:14:31;95685.34;;;14.87;100.00
5462;BME280;912;48.130;11.348;2022-07-01T10:17:30;95688.75;;;14.90;100.00
5462;BME280;912;48.130;11.348;2022-07-01T10:20:18;95692.76;;;14.67;100.00
5462;BME280;912;48.130;11.348;2022-07-01T10:23:04;95691.66;;;14.82;100.00
5462;BME280;912;48.130;11.348;2022-07-01T10:25:45;95701.31;;;14.96;100.00
5462;BME280;912;48.130;11.348;2022-07-01T10:28:40;95695.91;;;15.12;100.00
5462;BME280;912;48.130;11.348;2022-07-01T10:31:14;95701.69;;;14.92;100.00
5462;BME280;912;48.130;11.348;2022-07-01T10:35:50;95709.19;;;14.94;100.00
5462;BME280;912;48.130;11.348;2022-07-01T10:38:31;95706.12;;;15.01;100.00
5462;BME280;912;48.130;11.348;2022-07-01T10:41:22;95714.12;;;14.86;100.00
5462;BME280;912;48.130;11.348;2022-07-01T10:44:04;95715.92;;;14.75;100.00
5462;BME280;912;48.130;11.348;2022-07-01T10:46:51;95709.24;;;14.93;100.00
5462;BME280;912;48.130;11.348;2022-07-01T10:49:52;95701.13;;;15.01;100.00
5462;BME280;912;48.130;11.348;2022-07-01T10:52:31;95706.20;;;15.10;100.00
5462;BME280;912;48.130;11.348;2022-07-01T10:55:15;95711.14;;;15.33;100.00
5462;BME280;912;48.130;11.348;2022-07-01T10:57:57;95712.50;;;15.43;100.00
5462;BME280;912;48.130;11.348;2022-07-01T11:00:41;95714.02;;;15.38;100.00
5462;BME280;912;48.130;11.348;2022-07-01T11:03:22;95719.75;;;15.43;100.00
5462;BME280;912;48.130;11.348;2022-07-01T11:06:05;95723.35;;;15.40;100.00
5462;BME280;912;48.130;11.348;2022-07-01T11:08:52;95716.66;;;15.04;100.00
5462;BME280;912;48.130;11.348;2022-07-01T11:11:33;95722.34;;;15.08;100.00
5462;BME280;912;48.130;11.348;2022-07-01T11:14:14;95726.20;;;15.11;100.00
5462;BME280;912;48.130;11.348;2022-07-01T11:16:56;95727.89;;;15.07;100.00
5462;BME280;912;48.130;11.348;2022-07-01T11:19:37;95730.72;;;15.02;100.00
5462;BME280;912;48.130;11.348;2022-07-01T11:22:21;95733.77;;;14.92;100.00
5462;BME280;912;48.130;11.348;2022-07-01T11:25:09;95737.64;;;14.80;100.00
5462;BME280;912;48.130;11.348;2022-07-01T11:27:52;95724.87;;;14.85;100.00
5462;BME280;912;48.130;11.348;2022-07-01T11:30:33;95722.66;;;14.87;100.00
5462;BME280;912;48.130;11.348;2022-07-01T11:35:56;95730.66;;;14.91;100.00
5462;BME280;912;48.130;11.348;2022-07-01T11:38:46;95732.89;;;15.18;100.00
5462;BME280;912;48.130;11.348;2022-07-01T11:41:36;95732.59;;;15.34;100.00
5462;BME280;912;48.130;11.348;2022-07-01T11:47:05;95727.04;;;15.55;100.00
5462;BME280;912;48.130;11.348;2022-07-01T11:49:46;95733.83;;;15.80;100.00
5462;BME280;912;48.130;11.348;2022-07-01T11:52:32;95741.56;;;15.64;100.00
5462;BME280;912;48.130;11.348;2022-07-01T11:55:18;95738.66;;;15.24;100.00
5462;BME280;912;48.130;11.348;2022-07-01T11:57:57;95728.33;;;15.24;100.00
5462;BME280;912;48.130;11.348;2022-07-01T12:00:39;95735.39;;;15.39;100.00
5462;BME280;912;48.130;11.348;2022-07-01T12:03:30;95733.16;;;15.59;100.00
5462;BME280;912;48.130;11.348;2022-07-01T12:06:16;95736.25;;;15.75;100.00
5462;BME280;912;48.130;11.348;2022-07-01T12:08:56;95738.12;;;15.79;100.00
5462;BME280;912;48.130;11.348;2022-07-01T12:11:45;95741.28;;;15.69;100.00
5462;BME280;912;48.130;11.348;2022-07-01T12:14:32;95739.50;;;15.76;100.00
5462;BME280;912;48.130;11.348;2022-07-01T12:17:19;95757.61;;;15.65;100.00
5462;BME280;912;48.130;11.348;2022-07-01T12:20:02;95771.66;;;15.10;100.00
5462;BME280;912;48.130;11.348;2022-07-01T12:22:50;95777.23;;;15.12;100.00
5462;BME280;912;48.130;11.348;2022-07-01T12:25:37;95785.80;;;14.96;100.00
5462;BME280;912;48.130;11.348;2022-07-01T12:28:27;95788.92;;;14.81;100.00
5462;BME280;912;48.130;11.348;2022-07-01T12:31:11;95787.03;;;14.81;100.00
5462;BME280;912;48.130;11.348;2022-07-01T12:35:50;95785.55;;;14.84;100.00
5462;BME280;912;48.130;11.348;2022-07-01T12:38:38;95796.75;;;14.86;100.00
5462;BME280;912;48.130;11.348;2022-07-01T12:41:31;95804.97;;;14.87;100.00
5462;BME280;912;48.130;11.348;2022-07-01T12:44:22;95812.47;;;14.81;100.00
5462;BME280;912;48.130;11.348;2022-07-01T12:47:17;95831.94;;;14.82;100.00
5462;BME280;912;48.130;11.348;2022-07-01T12:50:10;95827.41;;;14.67;100.00
5462;BME280;912;48.130;11.348;2022-07-01T12:53:05;95797.30;;;14.84;100.00
5462;BME280;912;48.130;11.348;2022-07-01T12:55:47;95815.58;;;15.29;100.00
5462;BME280;912;48.130;11.348;2022-07-01T12:58:29;95808.55;;;15.64;100.00
5462;BME280;912;48.130;11.348;2022-07-01T13:01:16;95804.36;;;15.90;100.00
5462;BME280;912;48.130;11.348;2022-07-01T13:03:58;95793.73;;;16.03;100.00
5462;BME280;912;48.130;11.348;2022-07-01T13:06:39;95783.30;;;16.08;100.00
5462;BME280;912;48.130;11.348;2022-07-01T13:09:20;95774.59;;;15.80;100.00
5462;BME280;912;48.130;11.348;2022-07-01T13:12:02;95785.11;;;15.56;100.00
5462;BME280;912;48.130;11.348;2022-07-01T13:14:43;95770.71;;;15.39;100.00
5462;BME280;912;48.130;11.348;2022-07-01T13:17:30;95755.94;;;15.43;100.00
5462;BME280;912;48.130;11.348;2022-07-01T13:20:14;95749.64;;;15.51;100.00
5462;BME280;912;48.130;11.348;2022-07-01T13:22:55;95759.70;;;15.75;100.00
5462;BME280;912;48.130;11.348;2022-07-01T13:25:36;95763.10;;;15.83;100.00
5462;BME280;912;48.130;11.348;2022-07-01T13:28:18;95756.73;;;15.67;100.00
5462;BME280;912;48.130;11.348;2022-07-01T13:30:59;95756.80;;;15.40;100.00
5462;BME280;912;48.130;11.348;2022-07-01T13:35:50;95783.09;;;15.51;100.00
5462;BME280;912;48.130;11.348;2022-07-01T13:38:38;95788.84;;;15.45;100.00
5462;BME280;912;48.130;11.348;2022-07-01T13:41:19;95803.38;;;15.23;100.00
5462;BME280;912;48.130;11.348;2022-07-01T13:44:07;95806.73;;;15.04;100.00
5462;BME280;912;48.130;11.348;2022-07-01T13:46:49;95804.02;;;14.93;100.00
5462;BME280;912;48.130;11.348;2022-07-01T13:49:31;95808.21;;;14.79;100.00
5462;BME280;912;48.130;11.348;2022-07-01T13:52:12;95813.12;;;14.76;100.00
5462;BME280;912;48.130;11.348;2022-07-01T13:54:55;95837.83;;;14.61;100.00
5462;BME280;912;48.130;11.348;2022-07-01T13:57:36;95834.48;;;14.48;100.00
5462;BME280;912;48.130;11.348;2022-07-01T14:00:19;95819.13;;;14.60;100.00
5462;BME280;912;48.130;11.348;2022-07-01T14:03:00;95819.66;;;14.69;100.00
5462;BME280;912;48.130;11.348;2022-07-01T14:05:42;95821.84;;;14.58;100.00
5462;BME280;912;48.130;11.348;2022-07-01T14:08:29;95830.43;;;14.63;100.00
5462;BME280;912;48.130;11.348;2022-07-01T14:11:16;95855.41;;;14.79;100.00
5462;BME280;912;48.130;11.348;2022-07-01T14:13:58;95843.16;;;14.81;100.00
5462;BME280;912;48.130;11.348;2022-07-01T14:16:39;95834.27;;;14.56;100.00
5462;BME280;912;48.130;11.348;2022-07-01T14:19:20;95838.41;;;14.42;100.00
5462;BME280;912;48.130;11.348;2022-07-01T14:22:06;95863.70;;;14.57;100.00
5462;BME280;912;48.130;11.348;2022-07-01T14:24:46;95860.02;;;14.59;100.00
5462;BME280;912;48.130;11.348;2022-07-01T14:27:28;95876.09;;;14.59;100.00
5462;BME280;912;48.130;11.348;2022-07-01T14:30:10;95876.81;;;14.58;100.00
5462;BME280;912;48.130;11.348;2022-07-01T14:32:52;95877.23;;;14.47;100.00
5462;BME280;912;48.130;11.348;2022-07-01T14:35:54;95881.36;;;14.43;100.00
5462;BME280;912;48.130;11.348;2022-07-01T14:38:35;95864.13;;;14.37;100.00
5462;BME280;912;48.130;11.348;2022-07-01T14:41:17;95862.45;;;14.55;100.00
5462;BME280;912;48.130;11.348;2022-07-01T14:43:58;95831.41;;;14.83;100.00
5462;BME280;912;48.130;11.348;2022-07-01T14:46:43;95819.66;;;15.24;100.00
5462;BME280;912;48.130;11.348;2022-07-01T14:49:30;95822.90;;;15.37;100.00
5462;BME280;912;48.130;11.348;2022-07-01T14:52:11;95807.28;;;15.49;100.00
5462;BME280;912;48.130;11.348;2022-07-01T14:54:52;95804.97;;;15.23;100.00
5462;BME280;912;48.130;11.348;2022-07-01T14:57:34;95818.63;;;15.18;100.00
5462;BME280;912;48.130;11.348;2022-07-01T15:00:15;95831.14;;;14.94;100.00
5462;BME280;912;48.130;11.348;2022-07-01T15:02:56;95802.72;;;14.99;100.00
5462;BME280;912;48.130;11.348;2022-07-01T15:05:38;95818.28;;;14.99;100.00
5462;BME280;912;48.130;11.348;2022-07-01T15:08:25;95843.20;;;15.06;100.00
5462;BME280;912;48.130;11.348;2022-07-01T15:11:06;95854.52;;;14.97;100.00
5462;BME280;912;48.130;11.348;2022-07-01T15:13:50;95874.91;;;14.81;100.00
5462;BME280;912;48.130;11.348;2022-07-01T15:16:31;95864.80;;;14.97;100.00
5462;BME280;912;48.130;11.348;2022-07-01T15:19:13;95859.86;;;15.08;100.00
5462;BME280;912;48.130;11.348;2022-07-01T15:22:00;95869.14;;;15.15;100.00